sensor_id;sensor_type;location;lat;lon;timestamp;pressure;altitude;pressure_sealevel;temperature;humidity
77823;BME280;67013;49.730;17.292;2023-11-19T00:02:12;98870.34;;;4.28;70.58
77823;BME280;67013;49.730;17.292;2023-11-19T00:04:42;98874.95;;;4.29;70.57
77823;BME280;67013;49.730;17.292;2023-11-19T00:07:12;98876.86;;;4.29;70.67
77823;BME280;67013;49.730;17.292;2023-11-19T00:09:42;98876.32;;;4.30;70.94
77823;BME280;67013;49.730;17.292;2023-11-19T00:12:12;98877.73;;;4.29;70.85
77823;BME280;67013;49.730;17.292;2023-11-19T00:14:42;98876.42;;;4.27;70.96
77823;BME280;67013;49.730;17.292;2023-11-19T00:17:12;98872.75;;;4.23;71.28
77823;BME280;67013;49.730;17.292;2023-11-19T00:19:42;98870.38;;;4.23;71.18
77823;BME280;67013;49.730;17.292;2023-11-19T00:22:12;98871.77;;;4.22;71.14
77823;BME280;67013;49.730;17.292;2023-11-19T00:24:41;98875.42;;;4.21;71.14
77823;BME280;67013;49.730;17.292;2023-11-19T00:27:11;98875.46;;;4.20;71.07
77823;BME280;67013;49.730;17.292;2023-11-19T00:29:40;98867.16;;;4.21;71.10
77823;BME280;67013;49.730;17.292;2023-11-19T00:32:10;98859.79;;;4.20;70.86
77823;BME280;67013;49.730;17.292;2023-11-19T00:34:40;98851.70;;;4.20;70.82
77823;BME280;67013;49.730;17.292;2023-11-19T00:37:09;98840.70;;;4.20;71.10
77823;BME280;67013;49.730;17.292;2023-11-19T00:39:39;98841.63;;;4.18;70.99
77823;BME280;67013;49.730;17.292;2023-11-19T00:42:08;98841.36;;;4.16;71.10
77823;BME280;67013;49.730;17.292;2023-11-19T00:44:38;98841.46;;;4.14;70.94
77823;BME280;67013;49.730;17.292;2023-11-19T00:47:07;98835.70;;;4.12;70.91
77823;BME280;67013;49.730;17.292;2023-11-19T00:49:37;98833.52;;;4.10;70.94
77823;BME280;67013;49.730;17.292;2023-11-19T00:52:07;98831.13;;;4.10;70.76
77823;BME280;67013;49.730;17.292;2023-11-19T00:54:37;98834.21;;;4.10;70.68
77823;BME280;67013;49.730;17.292;2023-11-19T00:57:06;98830.97;;;4.10;70.34
77823;BME280;67013;49.730;17.292;2023-11-19T00:59:36;98832.35;;;4.09;70.72
77823;BME280;67013;49.730;17.292;2023-11-19T01:02:05;98829.94;;;4.09;70.57
77823;BME280;67013;49.730;17.292;2023-11-19T01:04:36;98823.11;;;4.08;70.75
77823;BME280;67013;49.730;17.292;2023-11-19T01:07:07;98814.89;;;4.07;70.66
77823;BME280;67013;49.730;17.292;2023-11-19T01:09:42;98808.52;;;4.07;70.63
77823;BME280;67013;49.730;17.292;2023-11-19T01:12:12;98813.55;;;4.06;70.78
77823;BME280;67013;49.730;17.292;2023-11-19T01:14:41;98810.34;;;4.05;70.72
77823;BME280;67013;49.730;17.292;2023-11-19T01:17:11;98807.47;;;4.03;70.94
77823;BME280;67013;49.730;17.292;2023-11-19T01:19:40;98806.46;;;4.02;70.34
77823;BME280;67013;49.730;17.292;2023-11-19T01:22:10;98805.79;;;4.02;70.90
77823;BME280;67013;49.730;17.292;2023-11-19T01:24:39;98803.70;;;4.03;70.78
77823;BME280;67013;49.730;17.292;2023-11-19T01:27:08;98793.14;;;4.04;70.85
77823;BME280;67013;49.730;17.292;2023-11-19T01:29:38;98783.78;;;4.06;70.61
77823;BME280;67013;49.730;17.292;2023-11-19T01:32:09;98771.32;;;4.08;70.96
77823;BME280;67013;49.730;17.292;2023-11-19T01:34:40;98759.68;;;4.10;70.93
77823;BME280;67013;49.730;17.292;2023-11-19T01:37:10;98756.51;;;4.12;70.82
77823;BME280;67013;49.730;17.292;2023-11-19T01:39:41;98746.10;;;4.14;70.75
77823;BME280;67013;49.730;17.292;2023-11-19T01:42:12;98744.84;;;4.15;70.80
77823;BME280;67013;49.730;17.292;2023-11-19T01:44:42;98750.33;;;4.16;70.56
77823;BME280;67013;49.730;17.292;2023-11-19T01:47:11;98736.05;;;4.16;71.11
77823;BME280;67013;49.730;17.292;2023-11-19T01:49:42;98713.42;;;4.14;70.63
77823;BME280;67013;49.730;17.292;2023-11-19T01:52:11;98704.80;;;4.10;70.62
77823;BME280;67013;49.730;17.292;2023-11-19T01:54:41;98699.23;;;4.07;70.20
77823;BME280;67013;49.730;17.292;2023-11-19T01:57:11;98698.44;;;4.05;69.92
77823;BME280;67013;49.730;17.292;2023-11-19T01:59:41;98699.55;;;4.04;70.15
77823;BME280;67013;49.730;17.292;2023-11-19T02:02:10;98691.61;;;4.04;70.37
77823;BME280;67013;49.730;17.292;2023-11-19T02:04:40;98681.64;;;4.04;70.15
77823;BME280;67013;49.730;17.292;2023-11-19T02:07:10;98679.77;;;4.04;70.15
77823;BME280;67013;49.730;17.292;2023-11-19T02:09:40;98677.20;;;4.03;70.37
77823;BME280;67013;49.730;17.292;2023-11-19T02:12:11;98678.12;;;4.02;70.02
77823;BME280;67013;49.730;17.292;2023-11-19T02:14:41;98669.31;;;3.99;70.50
77823;BME280;67013;49.730;17.292;2023-11-19T02:17:26;98668.33;;;3.98;70.37
77823;BME280;67013;49.730;17.292;2023-11-19T02:19:56;98668.53;;;3.97;70.28
77823;BME280;67013;49.730;17.292;2023-11-19T02:22:26;98659.42;;;3.97;70.01
77823;BME280;67013;49.730;17.292;2023-11-19T02:25:00;98649.64;;;3.96;69.94
77823;BME280;67013;49.730;17.292;2023-11-19T02:27:39;98652.80;;;3.95;69.92
77823;BME280;67013;49.730;17.292;2023-11-19T02:30:11;98661.64;;;3.93;69.94
77823;BME280;67013;49.730;17.292;2023-11-19T02:32:42;98651.16;;;3.93;69.53
77823;BME280;67013;49.730;17.292;2023-11-19T02:35:11;98631.01;;;3.93;69.63
77823;BME280;67013;49.730;17.292;2023-11-19T02:37:41;98612.73;;;3.94;69.69
77823;BME280;67013;49.730;17.292;2023-11-19T02:40:11;98610.59;;;3.96;69.10
77823;BME280;67013;49.730;17.292;2023-11-19T02:42:41;98607.24;;;3.98;69.11
77823;BME280;67013;49.730;17.292;2023-11-19T02:45:12;98612.77;;;3.98;69.55
77823;BME280;67013;49.730;17.292;2023-11-19T02:47:43;98614.96;;;3.94;69.31
77823;BME280;67013;49.730;17.292;2023-11-19T02:50:13;98618.21;;;3.90;69.45
77823;BME280;67013;49.730;17.292;2023-11-19T02:52:43;98621.52;;;3.85;69.23
77823;BME280;67013;49.730;17.292;2023-11-19T02:55:13;98614.48;;;3.81;69.16
77823;BME280;67013;49.730;17.292;2023-11-19T02:57:43;98604.79;;;3.78;69.23
77823;BME280;67013;49.730;17.292;2023-11-19T03:00:18;98601.83;;;3.75;69.28
77823;BME280;67013;49.730;17.292;2023-11-19T03:02:52;98599.52;;;3.73;69.39
77823;BME280;67013;49.730;17.292;2023-11-19T03:05:28;98597.48;;;3.72;69.50
77823;BME280;67013;49.730;17.292;2023-11-19T03:07:58;98591.39;;;3.70;69.90
77823;BME280;67013;49.730;17.292;2023-11-19T03:10:28;98579.91;;;3.69;69.64
77823;BME280;67013;49.730;17.292;2023-11-19T03:12:57;98574.60;;;3.69;69.61
77823;BME280;67013;49.730;17.292;2023-11-19T03:15:30;98570.48;;;3.68;69.66
77823;BME280;67013;49.730;17.292;2023-11-19T03:17:59;98574.98;;;3.68;69.34
77823;BME280;67013;49.730;17.292;2023-11-19T03:20:29;98566.31;;;3.65;69.73
77823;BME280;67013;49.730;17.292;2023-11-19T03:22:59;98562.77;;;3.64;69.73
77823;BME280;67013;49.730;17.292;2023-11-19T03:25:29;98565.23;;;3.62;70.18
77823;BME280;67013;49.730;17.292;2023-11-19T03:28:02;98566.13;;;3.61;69.97
77823;BME280;67013;49.730;17.292;2023-11-19T03:30:32;98565.64;;;3.61;70.22
77823;BME280;67013;49.730;17.292;2023-11-19T03:33:02;98567.23;;;3.59;70.54
77823;BME280;67013;49.730;17.292;2023-11-19T03:35:31;98563.70;;;3.58;70.50
77823;BME280;67013;49.730;17.292;2023-11-19T03:38:02;98572.13;;;3.58;70.73
77823;BME280;67013;49.730;17.292;2023-11-19T03:40:31;98575.70;;;3.58;70.95
77823;BME280;67013;49.730;17.292;2023-11-19T03:43:01;98578.86;;;3.61;70.87
77823;BME280;67013;49.730;17.292;2023-11-19T03:45:32;98578.41;;;3.64;70.88
77823;BME280;67013;49.730;17.292;2023-11-19T03:48:01;98584.63;;;3.67;70.88
77823;BME280;67013;49.730;17.292;2023-11-19T03:50:31;98583.89;;;3.69;70.77
77823;BME280;67013;49.730;17.292;2023-11-19T03:53:01;98585.94;;;3.69;70.98
77823;BME280;67013;49.730;17.292;2023-11-19T03:55:32;98577.29;;;3.70;71.23
77823;BME280;67013;49.730;17.292;2023-11-19T03:58:02;98576.23;;;3.71;71.09
77823;BME280;67013;49.730;17.292;2023-11-19T04:00:31;98565.20;;;3.71;70.63
77823;BME280;67013;49.730;17.292;2023-11-19T04:03:01;98558.66;;;3.71;70.75
77823;BME280;67013;49.730;17.292;2023-11-19T04:05:31;98560.85;;;3.72;70.52
77823;BME280;67013;49.730;17.292;2023-11-19T04:08:01;98566.52;;;3.72;70.57
77823;BME280;67013;49.730;17.292;2023-11-19T04:10:30;98575.44;;;3.73;70.74
77823;BME280;67013;49.730;17.292;2023-11-19T04:12:59;98571.14;;;3.73;70.72
77823;BME280;67013;49.730;17.292;2023-11-19T04:15:29;98572.84;;;3.73;70.68
77823;BME280;67013;49.730;17.292;2023-11-19T04:17:58;98566.41;;;3.75;70.24
77823;BME280;67013;49.730;17.292;2023-11-19T04:20:28;98556.70;;;3.77;69.99
77823;BME280;67013;49.730;17.292;2023-11-19T04:22:59;98550.20;;;3.76;70.00
77823;BME280;67013;49.730;17.292;2023-11-19T04:25:29;98547.91;;;3.77;69.57
77823;BME280;67013;49.730;17.292;2023-11-19T04:27:59;98533.22;;;3.75;69.37
77823;BME280;67013;49.730;17.292;2023-11-19T04:30:28;98517.02;;;3.68;69.35
77823;BME280;67013;49.730;17.292;2023-11-19T04:32:59;98521.64;;;3.64;69.44
77823;BME280;67013;49.730;17.292;2023-11-19T04:35:29;98520.56;;;3.61;69.08
77823;BME280;67013;49.730;17.292;2023-11-19T04:37:59;98524.25;;;3.55;69.02
77823;BME280;67013;49.730;17.292;2023-11-19T04:40:28;98531.45;;;3.52;69.01
77823;BME280;67013;49.730;17.292;2023-11-19T04:42:57;98521.73;;;3.49;69.53
77823;BME280;67013;49.730;17.292;2023-11-19T04:45:27;98513.56;;;3.47;69.30
77823;BME280;67013;49.730;17.292;2023-11-19T04:47:57;98505.39;;;3.46;69.01
77823;BME280;67013;49.730;17.292;2023-11-19T04:50:27;98496.61;;;3.46;69.42
77823;BME280;67013;49.730;17.292;2023-11-19T04:52:56;98495.56;;;3.46;69.11
77823;BME280;67013;49.730;17.292;2023-11-19T04:55:26;98492.23;;;3.48;69.02
77823;BME280;67013;49.730;17.292;2023-11-19T04:57:56;98494.05;;;3.50;69.31
77823;BME280;67013;49.730;17.292;2023-11-19T05:00:26;98497.97;;;3.51;69.37
77823;BME280;67013;49.730;17.292;2023-11-19T05:02:55;98499.16;;;3.51;69.37
77823;BME280;67013;49.730;17.292;2023-11-19T05:05:25;98496.45;;;3.50;69.79
77823;BME280;67013;49.730;17.292;2023-11-19T05:07:56;98492.65;;;3.46;69.76
77823;BME280;67013;49.730;17.292;2023-11-19T05:10:26;98492.33;;;3.42;70.03
77823;BME280;67013;49.730;17.292;2023-11-19T05:12:55;98493.24;;;3.36;70.49
77823;BME280;67013;49.730;17.292;2023-11-19T05:15:25;98494.12;;;3.32;70.59
77823;BME280;67013;49.730;17.292;2023-11-19T05:17:55;98485.84;;;3.28;70.73
77823;BME280;67013;49.730;17.292;2023-11-19T05:20:25;98486.59;;;3.27;71.50
77823;BME280;67013;49.730;17.292;2023-11-19T05:22:54;98495.25;;;3.26;71.27
77823;BME280;67013;49.730;17.292;2023-11-19T05:25:24;98497.72;;;3.25;71.42
77823;BME280;67013;49.730;17.292;2023-11-19T05:27:55;98492.13;;;3.22;71.90
77823;BME280;67013;49.730;17.292;2023-11-19T05:30:24;98476.02;;;3.22;72.05
77823;BME280;67013;49.730;17.292;2023-11-19T05:32:54;98467.35;;;3.19;71.69
77823;BME280;67013;49.730;17.292;2023-11-19T05:35:23;98470.96;;;3.15;71.85
77823;BME280;67013;49.730;17.292;2023-11-19T05:37:52;98465.58;;;3.12;72.35
77823;BME280;67013;49.730;17.292;2023-11-19T05:40:22;98452.54;;;3.11;72.48
77823;BME280;67013;49.730;17.292;2023-11-19T05:42:51;98454.88;;;3.13;72.34
77823;BME280;67013;49.730;17.292;2023-11-19T05:45:21;98456.77;;;3.13;72.52
77823;BME280;67013;49.730;17.292;2023-11-19T05:47:52;98443.77;;;3.12;72.40
77823;BME280;67013;49.730;17.292;2023-11-19T05:50:22;98430.35;;;3.12;72.43
77823;BME280;67013;49.730;17.292;2023-11-19T05:52:52;98425.73;;;3.07;72.76
77823;BME280;67013;49.730;17.292;2023-11-19T05:55:22;98413.55;;;3.03;72.79
77823;BME280;67013;49.730;17.292;2023-11-19T05:57:52;98406.11;;;2.96;73.02
77823;BME280;67013;49.730;17.292;2023-11-19T06:00:22;98407.35;;;2.92;72.99
77823;BME280;67013;49.730;17.292;2023-11-19T06:02:52;98404.41;;;2.88;73.36
77823;BME280;67013;49.730;17.292;2023-11-19T06:05:21;98398.18;;;2.84;73.10
77823;BME280;67013;49.730;17.292;2023-11-19T06:07:51;98387.52;;;2.81;73.29
77823;BME280;67013;49.730;17.292;2023-11-19T06:10:20;98396.02;;;2.75;73.57
77823;BME280;67013;49.730;17.292;2023-11-19T06:12:52;98402.05;;;2.74;73.62
77823;BME280;67013;49.730;17.292;2023-11-19T06:15:24;98398.25;;;2.74;73.79
77823;BME280;67013;49.730;17.292;2023-11-19T06:17:53;98394.34;;;2.73;73.91
77823;BME280;67013;49.730;17.292;2023-11-19T06:20:23;98394.69;;;2.73;74.01
77823;BME280;67013;49.730;17.292;2023-11-19T06:22:53;98389.20;;;2.73;73.94
77823;BME280;67013;49.730;17.292;2023-11-19T06:25:22;98380.70;;;2.71;74.04
77823;BME280;67013;49.730;17.292;2023-11-19T06:27:53;98388.13;;;2.70;74.26
77823;BME280;67013;49.730;17.292;2023-11-19T06:30:22;98391.63;;;2.68;74.35
77823;BME280;67013;49.730;17.292;2023-11-19T06:32:52;98393.73;;;2.68;74.66
77823;BME280;67013;49.730;17.292;2023-11-19T06:35:22;98387.06;;;2.67;74.51
77823;BME280;67013;49.730;17.292;2023-11-19T06:37:52;98379.17;;;2.67;74.67
77823;BME280;67013;49.730;17.292;2023-11-19T06:40:21;98374.24;;;2.66;74.42
77823;BME280;67013;49.730;17.292;2023-11-19T06:42:51;98380.50;;;2.64;74.59
77823;BME280;67013;49.730;17.292;2023-11-19T06:45:20;98378.27;;;2.60;74.62
77823;BME280;67013;49.730;17.292;2023-11-19T06:47:50;98373.52;;;2.58;75.04
77823;BME280;67013;49.730;17.292;2023-11-19T06:50:19;98372.48;;;2.58;74.99
77823;BME280;67013;49.730;17.292;2023-11-19T06:52:49;98371.27;;;2.58;74.97
77823;BME280;67013;49.730;17.292;2023-11-19T06:55:18;98360.16;;;2.62;75.36
77823;BME280;67013;49.730;17.292;2023-11-19T06:57:48;98350.94;;;2.64;75.02
77823;BME280;67013;49.730;17.292;2023-11-19T07:00:19;98354.85;;;2.66;75.31
77823;BME280;67013;49.730;17.292;2023-11-19T07:02:49;98343.96;;;2.67;75.18
77823;BME280;67013;49.730;17.292;2023-11-19T07:05:19;98343.20;;;2.69;75.00
77823;BME280;67013;49.730;17.292;2023-11-19T07:07:49;98325.43;;;2.67;75.15
77823;BME280;67013;49.730;17.292;2023-11-19T07:10:18;98317.40;;;2.66;75.48
77823;BME280;67013;49.730;17.292;2023-11-19T07:12:48;98310.05;;;2.65;75.35
77823;BME280;67013;49.730;17.292;2023-11-19T07:15:18;98307.69;;;2.64;75.33
77823;BME280;67013;49.730;17.292;2023-11-19T07:17:48;98321.90;;;2.61;75.38
77823;BME280;67013;49.730;17.292;2023-11-19T07:20:18;98325.23;;;2.59;75.39
77823;BME280;67013;49.730;17.292;2023-11-19T07:22:47;98327.36;;;2.58;75.67
77823;BME280;67013;49.730;17.292;2023-11-19T07:25:17;98334.65;;;2.60;75.78
77823;BME280;67013;49.730;17.292;2023-11-19T07:27:46;98344.30;;;2.63;75.67
77823;BME280;67013;49.730;17.292;2023-11-19T07:30:17;98347.20;;;2.68;75.96
77823;BME280;67013;49.730;17.292;2023-11-19T07:32:46;98357.17;;;2.71;75.98
77823;BME280;67013;49.730;17.292;2023-11-19T07:35:16;98367.39;;;2.73;76.05
77823;BME280;67013;49.730;17.292;2023-11-19T07:37:46;98357.84;;;2.76;75.84
77823;BME280;67013;49.730;17.292;2023-11-19T07:40:18;98338.73;;;2.77;76.08
77823;BME280;67013;49.730;17.292;2023-11-19T07:42:48;98327.64;;;2.75;76.19
77823;BME280;67013;49.730;17.292;2023-11-19T07:45:17;98322.47;;;2.76;76.22
77823;BME280;67013;49.730;17.292;2023-11-19T07:47:47;98319.89;;;2.76;76.30
77823;BME280;67013;49.730;17.292;2023-11-19T07:50:16;98322.39;;;2.74;76.43
77823;BME280;67013;49.730;17.292;2023-11-19T07:52:48;98328.79;;;2.72;76.54
77823;BME280;67013;49.730;17.292;2023-11-19T07:55:17;98322.02;;;2.74;76.75
77823;BME280;67013;49.730;17.292;2023-11-19T07:57:47;98303.77;;;2.75;76.79
77823;BME280;67013;49.730;17.292;2023-11-19T08:00:18;98297.89;;;2.76;76.77
77823;BME280;67013;49.730;17.292;2023-11-19T08:02:47;98301.55;;;2.79;76.56
77823;BME280;67013;49.730;17.292;2023-11-19T08:05:17;98312.61;;;2.81;76.65
77823;BME280;67013;49.730;17.292;2023-11-19T08:07:46;98324.86;;;2.83;76.54
77823;BME280;67013;49.730;17.292;2023-11-19T08:10:16;98335.90;;;2.82;76.73
77823;BME280;67013;49.730;17.292;2023-11-19T08:12:46;98342.39;;;2.83;76.97
77823;BME280;67013;49.730;17.292;2023-11-19T08:15:16;98333.94;;;2.84;76.75
77823;BME280;67013;49.730;17.292;2023-11-19T08:17:45;98330.73;;;2.88;77.03
77823;BME280;67013;49.730;17.292;2023-11-19T08:20:15;98327.91;;;2.89;76.80
77823;BME280;67013;49.730;17.292;2023-11-19T08:22:45;98328.82;;;2.92;76.76
77823;BME280;67013;49.730;17.292;2023-11-19T08:25:14;98321.67;;;2.95;76.96
77823;BME280;67013;49.730;17.292;2023-11-19T08:27:44;98315.84;;;2.95;76.70
77823;BME280;67013;49.730;17.292;2023-11-19T08:30:15;98309.48;;;2.95;76.97
77823;BME280;67013;49.730;17.292;2023-11-19T08:32:45;98303.67;;;2.94;76.82
77823;BME280;67013;49.730;17.292;2023-11-19T08:35:14;98289.13;;;2.93;76.62
77823;BME280;67013;49.730;17.292;2023-11-19T08:37:44;98284.41;;;2.91;77.00
77823;BME280;67013;49.730;17.292;2023-11-19T08:40:15;98289.46;;;2.89;76.86
77823;BME280;67013;49.730;17.292;2023-11-19T08:42:45;98284.27;;;2.90;76.97
77823;BME280;67013;49.730;17.292;2023-11-19T08:45:15;98281.95;;;2.92;76.99
77823;BME280;67013;49.730;17.292;2023-11-19T08:47:44;98284.23;;;2.91;76.96
77823;BME280;67013;49.730;17.292;2023-11-19T08:50:14;98286.23;;;2.92;77.06
77823;BME280;67013;49.730;17.292;2023-11-19T08:52:43;98289.10;;;2.94;77.11
77823;BME280;67013;49.730;17.292;2023-11-19T08:55:13;98283.02;;;2.95;77.05
77823;BME280;67013;49.730;17.292;2023-11-19T08:57:42;98278.41;;;2.98;77.16
77823;BME280;67013;49.730;17.292;2023-11-19T09:00:14;98267.19;;;2.99;77.07
77823;BME280;67013;49.730;17.292;2023-11-19T09:02:43;98270.05;;;3.00;76.71
77823;BME280;67013;49.730;17.292;2023-11-19T09:05:13;98271.63;;;3.00;76.67
77823;BME280;67013;49.730;17.292;2023-11-19T09:07:42;98262.91;;;2.98;76.79
77823;BME280;67013;49.730;17.292;2023-11-19T09:10:12;98259.85;;;2.98;76.89
77823;BME280;67013;49.730;17.292;2023-11-19T09:12:42;98257.56;;;2.96;76.81
77823;BME280;67013;49.730;17.292;2023-11-19T09:15:12;98249.38;;;2.95;77.06
77823;BME280;67013;49.730;17.292;2023-11-19T09:17:42;98245.71;;;2.92;76.81
77823;BME280;67013;49.730;17.292;2023-11-19T09:20:12;98235.52;;;2.90;77.04
77823;BME280;67013;49.730;17.292;2023-11-19T09:22:43;98230.23;;;2.89;76.95
77823;BME280;67013;49.730;17.292;2023-11-19T09:25:13;98221.65;;;2.88;77.10
77823;BME280;67013;49.730;17.292;2023-11-19T09:27:45;98215.05;;;2.90;77.24
77823;BME280;67013;49.730;17.292;2023-11-19T09:30:15;98200.66;;;2.93;77.27
77823;BME280;67013;49.730;17.292;2023-11-19T09:32:45;98198.91;;;2.98;77.41
77823;BME280;67013;49.730;17.292;2023-11-19T09:35:15;98192.99;;;2.99;76.87
77823;BME280;67013;49.730;17.292;2023-11-19T09:37:44;98199.01;;;3.03;77.18
77823;BME280;67013;49.730;17.292;2023-11-19T09:40:14;98201.37;;;3.08;77.10
77823;BME280;67013;49.730;17.292;2023-11-19T09:42:46;98203.43;;;3.11;77.25
77823;BME280;67013;49.730;17.292;2023-11-19T09:45:17;98210.85;;;3.14;77.09
77823;BME280;67013;49.730;17.292;2023-11-19T09:47:52;98215.63;;;3.15;76.85
77823;BME280;67013;49.730;17.292;2023-11-19T09:50:22;98211.33;;;3.15;77.20
77823;BME280;67013;49.730;17.292;2023-11-19T09:52:52;98201.70;;;3.15;76.97
77823;BME280;67013;49.730;17.292;2023-11-19T09:55:22;98196.02;;;3.15;76.99
77823;BME280;67013;49.730;17.292;2023-11-19T09:57:52;98199.48;;;3.15;77.10
77823;BME280;67013;49.730;17.292;2023-11-19T10:00:22;98193.42;;;3.16;77.02
77823;BME280;67013;49.730;17.292;2023-11-19T10:02:52;98183.02;;;3.18;77.19
77823;BME280;67013;49.730;17.292;2023-11-19T10:05:23;98183.91;;;3.21;76.96
77823;BME280;67013;49.730;17.292;2023-11-19T10:07:54;98183.21;;;3.25;77.04
77823;BME280;67013;49.730;17.292;2023-11-19T10:10:24;98184.11;;;3.28;77.09
77823;BME280;67013;49.730;17.292;2023-11-19T10:12:54;98177.35;;;3.29;77.17
77823;BME280;67013;49.730;17.292;2023-11-19T10:15:24;98169.63;;;3.29;77.14
77823;BME280;67013;49.730;17.292;2023-11-19T10:17:56;98159.63;;;3.29;77.30
77823;BME280;67013;49.730;17.292;2023-11-19T10:20:26;98151.38;;;3.29;77.39
77823;BME280;67013;49.730;17.292;2023-11-19T10:22:57;98146.39;;;3.29;77.17
77823;BME280;67013;49.730;17.292;2023-11-19T10:25:28;98144.20;;;3.32;77.53
77823;BME280;67013;49.730;17.292;2023-11-19T10:27:58;98139.56;;;3.36;77.35
77823;BME280;67013;49.730;17.292;2023-11-19T10:30:29;98140.55;;;3.40;77.45
77823;BME280;67013;49.730;17.292;2023-11-19T10:33:09;98128.77;;;3.42;77.51
77823;BME280;67013;49.730;17.292;2023-11-19T10:35:53;98121.36;;;3.42;77.49
77823;BME280;67013;49.730;17.292;2023-11-19T10:38:22;98118.11;;;3.42;77.83
77823;BME280;67013;49.730;17.292;2023-11-19T10:40:53;98119.27;;;3.42;77.87
77823;BME280;67013;49.730;17.292;2023-11-19T10:43:23;98110.51;;;3.42;78.08
77823;BME280;67013;49.730;17.292;2023-11-19T10:45:53;98102.85;;;3.44;78.16
77823;BME280;67013;49.730;17.292;2023-11-19T10:48:23;98094.05;;;3.45;77.96
77823;BME280;67013;49.730;17.292;2023-11-19T10:50:55;98095.27;;;3.45;77.84
77823;BME280;67013;49.730;17.292;2023-11-19T10:53:25;98093.86;;;3.49;78.29
77823;BME280;67013;49.730;17.292;2023-11-19T10:55:57;98089.19;;;3.53;78.15
77823;BME280;67013;49.730;17.292;2023-11-19T10:58:29;98085.17;;;3.55;78.00
77823;BME280;67013;49.730;17.292;2023-11-19T11:01:03;98086.99;;;3.57;78.37
77823;BME280;67013;49.730;17.292;2023-11-19T11:03:40;98082.39;;;3.59;78.02
77823;BME280;67013;49.730;17.292;2023-11-19T11:06:10;98073.06;;;3.60;78.11
77823;BME280;67013;49.730;17.292;2023-11-19T11:08:41;98077.77;;;3.59;78.00
77823;BME280;67013;49.730;17.292;2023-11-19T11:11:15;98084.27;;;3.59;77.98
77823;BME280;67013;49.730;17.292;2023-11-19T11:13:45;98084.61;;;3.63;77.83
77823;BME280;67013;49.730;17.292;2023-11-19T11:16:19;98084.36;;;3.68;78.11
77823;BME280;67013;49.730;17.292;2023-11-19T11:18:50;98080.42;;;3.74;78.17
77823;BME280;67013;49.730;17.292;2023-11-19T11:21:22;98083.16;;;3.78;78.16
77823;BME280;67013;49.730;17.292;2023-11-19T11:24:30;98083.39;;;3.80;77.77
77823;BME280;67013;49.730;17.292;2023-11-19T11:27:15;98080.19;;;3.83;77.70
77823;BME280;67013;49.730;17.292;2023-11-19T11:29:56;98074.52;;;3.82;77.39
77823;BME280;67013;49.730;17.292;2023-11-19T11:32:36;98070.29;;;3.81;77.97
77823;BME280;67013;49.730;17.292;2023-11-19T11:35:19;98064.41;;;3.81;77.55
77823;BME280;67013;49.730;17.292;2023-11-19T11:38:03;98064.10;;;3.84;78.03
77823;BME280;67013;49.730;17.292;2023-11-19T11:40:33;98053.87;;;3.89;78.03
77823;BME280;67013;49.730;17.292;2023-11-19T11:43:04;98049.38;;;3.93;77.98
77823;BME280;67013;49.730;17.292;2023-11-19T11:45:40;98053.10;;;3.94;78.25
77823;BME280;67013;49.730;17.292;2023-11-19T11:48:27;98063.27;;;3.94;77.83
77823;BME280;67013;49.730;17.292;2023-11-19T11:50:59;98061.41;;;3.93;78.24
77823;BME280;67013;49.730;17.292;2023-11-19T11:53:28;98061.28;;;3.92;78.31
77823;BME280;67013;49.730;17.292;2023-11-19T11:56:00;98067.30;;;3.92;78.26
77823;BME280;67013;49.730;17.292;2023-11-19T11:58:41;98066.25;;;3.93;78.50
77823;BME280;67013;49.730;17.292;2023-11-19T12:01:16;98065.63;;;3.94;78.44
77823;BME280;67013;49.730;17.292;2023-11-19T12:03:51;98058.45;;;3.97;78.66
77823;BME280;67013;49.730;17.292;2023-11-19T12:06:26;98048.48;;;4.00;78.53
77823;BME280;67013;49.730;17.292;2023-11-19T12:09:00;98036.79;;;4.00;78.76
77823;BME280;67013;49.730;17.292;2023-11-19T12:11:31;98031.76;;;4.01;78.55
77823;BME280;67013;49.730;17.292;2023-11-19T12:14:03;98027.67;;;4.00;78.74
77823;BME280;67013;49.730;17.292;2023-11-19T12:16:34;98030.83;;;3.99;78.42
77823;BME280;67013;49.730;17.292;2023-11-19T12:19:06;98023.74;;;4.00;78.49
77823;BME280;67013;49.730;17.292;2023-11-19T12:21:36;98018.67;;;4.01;78.63
77823;BME280;67013;49.730;17.292;2023-11-19T12:24:08;98014.31;;;4.02;78.65
77823;BME280;67013;49.730;17.292;2023-11-19T12:26:38;98002.48;;;4.01;78.81
77823;BME280;67013;49.730;17.292;2023-11-19T12:29:08;98006.20;;;4.00;78.75
77823;BME280;67013;49.730;17.292;2023-11-19T12:31:38;98008.20;;;3.97;78.88
77823;BME280;67013;49.730;17.292;2023-11-19T12:34:11;98004.32;;;3.96;79.26
77823;BME280;67013;49.730;17.292;2023-11-19T12:36:47;98002.44;;;3.96;79.34
77823;BME280;67013;49.730;17.292;2023-11-19T12:39:17;98003.44;;;3.96;79.22
77823;BME280;67013;49.730;17.292;2023-11-19T12:41:54;98018.67;;;3.98;79.37
77823;BME280;67013;49.730;17.292;2023-11-19T12:44:24;98027.38;;;3.99;79.37
77823;BME280;67013;49.730;17.292;2023-11-19T12:47:05;98013.64;;;4.01;79.23
77823;BME280;67013;49.730;17.292;2023-11-19T12:49:35;98008.77;;;4.02;79.56
77823;BME280;67013;49.730;17.292;2023-11-19T12:52:13;98005.61;;;4.04;79.63
77823;BME280;67013;49.730;17.292;2023-11-19T12:54:42;98006.43;;;4.04;79.36
77823;BME280;67013;49.730;17.292;2023-11-19T12:57:12;98006.20;;;4.05;79.56
77823;BME280;67013;49.730;17.292;2023-11-19T12:59:42;98006.92;;;4.08;79.83
77823;BME280;67013;49.730;17.292;2023-11-19T13:02:12;97996.52;;;4.06;79.65
77823;BME280;67013;49.730;17.292;2023-11-19T13:04:41;97989.79;;;4.03;79.75
77823;BME280;67013;49.730;17.292;2023-11-19T13:07:11;97994.98;;;4.00;79.94
77823;BME280;67013;49.730;17.292;2023-11-19T13:09:40;97997.58;;;4.00;79.95
77823;BME280;67013;49.730;17.292;2023-11-19T13:12:17;97990.22;;;4.02;80.00
77823;BME280;67013;49.730;17.292;2023-11-19T13:14:46;97986.02;;;4.03;80.04
77823;BME280;67013;49.730;17.292;2023-11-19T13:17:17;97977.38;;;4.04;80.15
77823;BME280;67013;49.730;17.292;2023-11-19T13:19:49;97985.01;;;4.06;79.98